Time;durP1;ratioP1;P1;durP2;ratioP2;P2;SDS_P1;SDS_P2;PMS_P1;PMS_P2;Temp;Humidity;BMP_temperature;BMP_pressure;BME280_temperature;BME280_humidity;BME280_pressure;Samples;Min_cycle;Max_cycle;Signal;HPM_P1;HPM_P2
2024/03/22 00:00:30;;;;;;;34.50;24.45;;;;;;;;;;5075532;28;20107;-50
2024/03/22 00:02:56;;;;;;;39.70;24.83;;;;;;;;;;5075556;28;20013;-51
2024/03/22 00:05:23;;;;;;;35.65;24.02;;;;;;;;;;5075728;28;20032;-51
2024/03/22 00:07:49;;;;;;;34.85;23.83;;;;;;;;;;5075707;28;20074;-51
2024/03/22 00:10:15;;;;;;;32.13;24.00;;;;;;;;;;5085164;28;20012;-50
2024/03/22 00:12:42;;;;;;;32.67;23.30;;;;;;;;;;5095437;28;20118;-51
2024/03/22 00:15:09;;;;;;;37.53;25.35;;;;;;;;;;5095613;28;20052;-51
2024/03/22 00:17:35;;;;;;;34.08;23.95;;;;;;;;;;5095585;28;20038;-51
2024/03/22 00:20:02;;;;;;;38.55;23.98;;;;;;;;;;5095572;28;20048;-50
2024/03/22 00:22:28;;;;;;;40.97;25.90;;;;;;;;;;5095427;28;20026;-52
2024/03/22 00:24:55;;;;;;;35.88;25.40;;;;;;;;;;5055151;28;20116;-50
2024/03/22 00:27:20;;;;;;;38.00;25.05;;;;;;;;;;5055100;28;20036;-51
2024/03/22 00:29:46;;;;;;;39.63;25.33;;;;;;;;;;5067741;28;20016;-51
2024/03/22 00:32:13;;;;;;;37.13;25.73;;;;;;;;;;5075033;28;20031;-51
2024/03/22 00:34:38;;;;;;;39.05;26.00;;;;;;;;;;5092530;28;20031;-52
2024/03/22 00:37:04;;;;;;;37.13;24.63;;;;;;;;;;5066837;28;20021;-51
2024/03/22 00:39:31;;;;;;;37.63;24.20;;;;;;;;;;5088879;28;20089;-52
2024/03/22 00:41:57;;;;;;;33.95;24.00;;;;;;;;;;5094806;28;20050;-52
2024/03/22 00:44:24;;;;;;;38.30;25.50;;;;;;;;;;5087240;28;20096;-51
2024/03/22 00:46:50;;;;;;;37.50;24.33;;;;;;;;;;5076830;28;20035;-52
2024/03/22 00:49:15;;;;;;;41.78;25.48;;;;;;;;;;5057138;28;20090;-51
2024/03/22 00:51:44;;;;;;;37.13;24.70;;;;;;;;;;5074767;28;20024;-51
2024/03/22 00:54:10;;;;;;;35.17;22.85;;;;;;;;;;5076687;28;20020;-53
2024/03/22 00:56:37;;;;;;;39.50;25.17;;;;;;;;;;5094830;28;20360;-52
2024/03/22 00:59:03;;;;;;;39.00;24.42;;;;;;;;;;5094824;28;20056;-53
2024/03/22 01:01:29;;;;;;;33.90;22.80;;;;;;;;;;5095004;28;20028;-51
2024/03/22 01:03:56;;;;;;;36.65;24.60;;;;;;;;;;5093385;28;20063;-52
2024/03/22 01:06:24;;;;;;;38.83;24.42;;;;;;;;;;5090563;28;20031;-53
2024/03/22 01:08:51;;;;;;;36.30;23.13;;;;;;;;;;5094527;28;20128;-53
2024/03/22 01:11:18;;;;;;;34.40;21.77;;;;;;;;;;5094652;28;20463;-52
2024/03/22 01:13:45;;;;;;;34.97;22.92;;;;;;;;;;5094640;28;20016;-52
2024/03/22 01:16:11;;;;;;;37.25;23.52;;;;;;;;;;5076436;28;20086;-53
2024/03/22 01:18:37;;;;;;;37.97;23.83;;;;;;;;;;5074241;28;20434;-52
2024/03/22 01:21:05;;;;;;;35.85;23.73;;;;;;;;;;5074359;28;20027;-51
2024/03/22 01:23:31;;;;;;;33.58;22.67;;;;;;;;;;5074421;28;20020;-52
2024/03/22 01:25:57;;;;;;;35.47;23.60;;;;;;;;;;5089998;28;20392;-53
2024/03/22 01:28:23;;;;;;;35.72;23.42;;;;;;;;;;5090645;28;20032;-51
2024/03/22 01:30:50;;;;;;;40.22;24.67;;;;;;;;;;5074415;28;20024;-51
2024/03/22 01:33:15;;;;;;;39.25;23.23;;;;;;;;;;5074155;28;20021;-51
2024/03/22 01:35:41;;;;;;;38.53;24.58;;;;;;;;;;5078043;28;20089;-51
2024/03/22 01:38:07;;;;;;;34.40;22.73;;;;;;;;;;5073139;28;20031;-52
2024/03/22 01:40:33;;;;;;;35.17;21.65;;;;;;;;;;5076610;28;20384;-50
2024/03/22 01:43:00;;;;;;;36.00;22.98;;;;;;;;;;5079913;28;20119;-50
2024/03/22 01:45:31;;;;;;;38.97;23.08;;;;;;;;;;5075245;28;20398;-50
2024/03/22 01:47:59;;;;;;;36.33;22.25;;;;;;;;;;5074522;28;20025;-51
2024/03/22 01:50:27;;;;;;;36.55;21.92;;;;;;;;;;5074042;28;20130;-51
2024/03/22 01:52:53;;;;;;;34.72;21.85;;;;;;;;;;5056378;28;20020;-50
2024/03/22 01:55:20;;;;;;;39.47;23.02;;;;;;;;;;5078930;28;20058;-50
2024/03/22 01:57:47;;;;;;;34.92;21.98;;;;;;;;;;5078292;28;20344;-51
2024/03/22 02:00:12;;;;;;;33.65;22.60;;;;;;;;;;5078071;28;20047;-51
2024/03/22 02:02:39;;;;;;;37.15;22.23;;;;;;;;;;5077791;28;20028;-52
2024/03/22 02:05:24;;;;;;;35.38;22.58;;;;;;;;;;5078369;28;20020;-51
2024/03/22 02:07:50;;;;;;;37.42;22.73;;;;;;;;;;5078305;28;20342;-50
2024/03/22 02:10:17;;;;;;;35.85;21.92;;;;;;;;;;5077808;28;20020;-53
2024/03/22 02:12:42;;;;;;;34.33;21.92;;;;;;;;;;5077748;28;20087;-51
2024/03/22 02:15:09;;;;;;;34.88;21.30;;;;;;;;;;5089606;28;20108;-50
2024/03/22 02:17:35;;;;;;;35.47;22.58;;;;;;;;;;5098070;28;20390;-51
2024/03/22 02:20:03;;;;;;;34.33;22.10;;;;;;;;;;5098040;28;20027;-51
2024/03/22 02:22:30;;;;;;;32.58;21.77;;;;;;;;;;5081590;28;20025;-51
2024/03/22 02:24:56;;;;;;;32.22;21.60;;;;;;;;;;5087406;28;20067;-51
2024/03/22 02:27:21;;;;;;;34.47;22.25;;;;;;;;;;5097740;28;20020;-51
2024/03/22 02:29:48;;;;;;;32.38;21.05;;;;;;;;;;5097706;28;20411;-51
2024/03/22 02:32:14;;;;;;;34.58;21.58;;;;;;;;;;5097651;28;20038;-52
2024/03/22 02:34:41;;;;;;;31.50;21.42;;;;;;;;;;5089952;28;20027;-51
2024/03/22 02:37:08;;;;;;;37.50;21.70;;;;;;;;;;5077604;28;20390;-54
2024/03/22 02:39:34;;;;;;;29.85;19.98;;;;;;;;;;5077415;28;20020;-51
2024/03/22 02:42:00;;;;;;;30.73;20.52;;;;;;;;;;5083609;28;20338;-50
2024/03/22 02:44:27;;;;;;;30.73;21.25;;;;;;;;;;5095757;28;20042;-53
2024/03/22 02:46:52;;;;;;;28.77;19.30;;;;;;;;;;5089329;28;20020;-52
2024/03/22 02:49:18;;;;;;;31.70;19.70;;;;;;;;;;5077127;28;20112;-51
2024/03/22 02:51:46;;;;;;;30.45;20.60;;;;;;;;;;5077045;28;20024;-51
2024/03/22 02:54:13;;;;;;;29.35;19.73;;;;;;;;;;5078175;28;20055;-51
2024/03/22 02:56:39;;;;;;;30.38;19.17;;;;;;;;;;5097314;28;20012;-52
2024/03/22 02:59:05;;;;;;;28.42;19.25;;;;;;;;;;5097184;28;20027;-53
2024/03/22 03:01:31;;;;;;;28.73;18.90;;;;;;;;;;5103447;22;20068;-87
2024/03/22 03:03:56;;;;;;;30.95;20.55;;;;;;;;;;5060149;28;20306;-86
2024/03/22 03:06:21;;;;;;;30.75;20.20;;;;;;;;;;5059565;28;20061;-87
2024/03/22 03:08:47;;;;;;;28.42;20.25;;;;;;;;;;5059488;28;20035;-86
2024/03/22 03:11:14;;;;;;;29.95;20.17;;;;;;;;;;5060000;28;20017;-87
2024/03/22 03:13:39;;;;;;;29.30;19.63;;;;;;;;;;5076651;28;20360;-86
2024/03/22 03:16:04;;;;;;;30.13;19.45;;;;;;;;;;5076014;28;20116;-86
2024/03/22 03:18:30;;;;;;;28.70;19.35;;;;;;;;;;5075982;28;20032;-87
2024/03/22 03:20:55;;;;;;;29.70;19.27;;;;;;;;;;5077126;28;20016;-87
2024/03/22 03:23:20;;;;;;;26.67;19.13;;;;;;;;;;5077312;28;20032;-87
2024/03/22 03:25:46;;;;;;;30.85;18.88;;;;;;;;;;5059554;28;20016;-86
2024/03/22 03:28:12;;;;;;;28.27;19.17;;;;;;;;;;5076904;28;20495;-87
2024/03/22 03:30:37;;;;;;;27.73;19.05;;;;;;;;;;5059216;28;20024;-87
2024/03/22 03:33:03;;;;;;;28.50;19.05;;;;;;;;;;5059729;28;20482;-86
2024/03/22 03:35:29;;;;;;;30.63;19.15;;;;;;;;;;5076981;28;20452;-86
2024/03/22 03:37:54;;;;;;;28.13;19.23;;;;;;;;;;5077273;28;20028;-86
2024/03/22 03:40:19;;;;;;;28.58;19.23;;;;;;;;;;5075829;28;20523;-87
2024/03/22 03:42:44;;;;;;;27.17;18.58;;;;;;;;;;5076773;28;20023;-87
2024/03/22 03:45:10;;;;;;;29.88;18.85;;;;;;;;;;5076682;28;20052;-87
2024/03/22 03:47:35;;;;;;;29.40;19.27;;;;;;;;;;5077008;28;20071;-87
2024/03/22 03:50:01;;;;;;;26.70;17.40;;;;;;;;;;5077927;28;20028;-87
2024/03/22 03:52:26;;;;;;;25.55;17.23;;;;;;;;;;5072835;28;20033;-87
2024/03/22 03:54:51;;;;;;;23.90;16.98;;;;;;;;;;5056850;28;20374;-87
2024/03/22 03:57:17;;;;;;;27.55;17.88;;;;;;;;;;5056793;28;20418;-87
2024/03/22 03:59:43;;;;;;;27.55;18.33;;;;;;;;;;5056076;28;20017;-87
2024/03/22 04:02:08;;;;;;;26.73;17.48;;;;;;;;;;5052603;22;20048;-52
2024/03/22 04:04:34;;;;;;;26.98;18.63;;;;;;;;;;5055677;28;20025;-51
2024/03/22 04:07:00;;;;;;;25.35;17.27;;;;;;;;;;5056251;28;20442;-51
2024/03/22 04:09:26;;;;;;;26.23;17.67;;;;;;;;;;5055525;28;20117;-51
2024/03/22 04:11:51;;;;;;;23.10;16.30;;;;;;;;;;5038117;28;20024;-52
2024/03/22 04:14:17;;;;;;;25.83;17.65;;;;;;;;;;5055792;28;20031;-50
2024/03/22 04:16:42;;;;;;;24.60;17.33;;;;;;;;;;5054852;28;20036;-50
2024/03/22 04:19:07;;;;;;;26.63;17.25;;;;;;;;;;5055410;28;20112;-51
2024/03/22 04:21:33;;;;;;;34.42;18.10;;;;;;;;;;5055413;28;20036;-50
2024/03/22 04:23:58;;;;;;;24.92;16.52;;;;;;;;;;5055067;28;20095;-50
2024/03/22 04:26:23;;;;;;;24.67;16.63;;;;;;;;;;5055286;28;20350;-51
2024/03/22 04:28:48;;;;;;;24.63;17.35;;;;;;;;;;5055062;28;20426;-53
2024/03/22 04:31:14;;;;;;;26.05;16.33;;;;;;;;;;5055431;28;20475;-51
2024/03/22 04:33:39;;;;;;;28.40;18.00;;;;;;;;;;5055502;28;20145;-51
2024/03/22 04:36:04;;;;;;;28.25;16.88;;;;;;;;;;5055665;28;20021;-51
2024/03/22 04:38:30;;;;;;;25.08;16.88;;;;;;;;;;5055581;28;20024;-52
2024/03/22 04:40:56;;;;;;;25.42;16.85;;;;;;;;;;5056086;28;20103;-51
2024/03/22 04:43:21;;;;;;;27.13;16.35;;;;;;;;;;5055391;28;20031;-50
2024/03/22 04:45:47;;;;;;;27.23;16.83;;;;;;;;;;5055228;28;20083;-54
2024/03/22 04:48:13;;;;;;;22.65;16.30;;;;;;;;;;5037805;28;20021;-50
2024/03/22 04:50:38;;;;;;;28.83;18.08;;;;;;;;;;5055347;28;20017;-50
2024/03/22 04:53:05;;;;;;;25.27;17.00;;;;;;;;;;5055328;28;20104;-52
2024/03/22 04:55:30;;;;;;;22.05;16.20;;;;;;;;;;5055039;28;20351;-51
2024/03/22 04:57:55;;;;;;;26.23;16.20;;;;;;;;;;5055274;28;20028;-51
2024/03/22 05:00:20;;;;;;;24.85;17.48;;;;;;;;;;5055398;28;20024;-50
2024/03/22 05:02:47;;;;;;;23.23;15.13;;;;;;;;;;5037666;28;20404;-51
2024/03/22 05:05:14;;;;;;;23.73;16.58;;;;;;;;;;5054996;28;20082;-52
2024/03/22 05:07:40;;;;;;;23.77;16.73;;;;;;;;;;5055242;28;20111;-51
2024/03/22 05:10:06;;;;;;;22.75;16.50;;;;;;;;;;5055305;28;20020;-51
2024/03/22 05:12:33;;;;;;;20.98;15.07;;;;;;;;;;5054978;28;20052;-51
2024/03/22 05:14:59;;;;;;;24.13;16.13;;;;;;;;;;5054764;28;20067;-51
2024/03/22 05:17:26;;;;;;;25.77;16.48;;;;;;;;;;5054930;28;20021;-50
2024/03/22 05:19:52;;;;;;;27.08;16.45;;;;;;;;;;5054928;28;20429;-50
2024/03/22 05:22:20;;;;;;;24.92;15.82;;;;;;;;;;5055125;28;20017;-51
2024/03/22 05:24:45;;;;;;;27.35;16.55;;;;;;;;;;5054640;28;20017;-51
2024/03/22 05:27:12;;;;;;;24.65;15.88;;;;;;;;;;5037210;28;20036;-51
2024/03/22 05:29:39;;;;;;;22.02;15.60;;;;;;;;;;5054177;28;20021;-51
2024/03/22 05:32:06;;;;;;;24.83;15.55;;;;;;;;;;5055077;28;20082;-51
2024/03/22 05:34:32;;;;;;;23.13;15.95;;;;;;;;;;5055126;28;20120;-50
2024/03/22 05:36:58;;;;;;;24.60;15.35;;;;;;;;;;5037255;28;20053;-51
2024/03/22 05:39:25;;;;;;;24.75;15.50;;;;;;;;;;5054855;28;20438;-50
2024/03/22 05:41:51;;;;;;;20.55;14.73;;;;;;;;;;5054989;28;20111;-51
2024/03/22 05:44:18;;;;;;;28.60;16.45;;;;;;;;;;5054772;28;20021;-51
2024/03/22 05:46:44;;;;;;;28.73;18.13;;;;;;;;;;5054457;28;20120;-53
2024/03/22 05:49:11;;;;;;;23.05;16.77;;;;;;;;;;5054541;28;20027;-51
2024/03/22 05:51:36;;;;;;;25.23;16.15;;;;;;;;;;5054349;28;20040;-53
2024/03/22 05:54:03;;;;;;;21.85;15.02;;;;;;;;;;5054427;28;20434;-53
2024/03/22 05:56:29;;;;;;;23.65;14.38;;;;;;;;;;5054215;28;20032;-52
2024/03/22 05:58:56;;;;;;;28.70;18.27;;;;;;;;;;5054751;28;20430;-51
2024/03/22 06:01:22;;;;;;;25.65;15.40;;;;;;;;;;5054465;28;20060;-51
2024/03/22 06:03:48;;;;;;;24.75;15.90;;;;;;;;;;5054542;28;20132;-51
2024/03/22 06:06:14;;;;;;;23.25;14.10;;;;;;;;;;5054353;28;20025;-52
2024/03/22 06:08:43;;;;;;;22.58;15.50;;;;;;;;;;5054643;28;20029;-51
2024/03/22 06:11:09;;;;;;;19.50;13.98;;;;;;;;;;5054402;28;20434;-52
2024/03/22 06:13:36;;;;;;;23.13;14.48;;;;;;;;;;5054582;28;20017;-54
2024/03/22 06:16:03;;;;;;;23.50;15.60;;;;;;;;;;5054336;28;20052;-52
2024/03/22 06:18:28;;;;;;;21.73;14.88;;;;;;;;;;5054360;28;20017;-52
2024/03/22 06:20:55;;;;;;;21.05;15.50;;;;;;;;;;5054335;28;20457;-52
2024/03/22 06:23:21;;;;;;;22.45;14.98;;;;;;;;;;5054371;28;20078;-52
2024/03/22 06:25:55;;;;;;;23.20;14.98;;;;;;;;;;5054035;28;20468;-52
2024/03/22 06:28:25;;;;;;;24.83;16.05;;;;;;;;;;5054169;28;20028;-51
2024/03/22 06:30:50;;;;;;;27.63;14.80;;;;;;;;;;5054284;28;20492;-51
2024/03/22 06:33:16;;;;;;;23.88;14.45;;;;;;;;;;5054168;28;20026;-51
2024/03/22 06:35:42;;;;;;;22.42;13.57;;;;;;;;;;5054000;28;20031;-51
2024/03/22 06:38:09;;;;;;;21.67;13.93;;;;;;;;;;5053923;28;20450;-52
2024/03/22 06:40:35;;;;;;;26.20;15.60;;;;;;;;;;5056563;28;20107;-52
2024/03/22 06:43:02;;;;;;;22.80;14.60;;;;;;;;;;5057796;28;20459;-52
2024/03/22 06:45:29;;;;;;;24.13;14.98;;;;;;;;;;5057786;28;20028;-52
2024/03/22 06:47:55;;;;;;;20.52;14.05;;;;;;;;;;5058713;28;20040;-53
2024/03/22 06:50:24;;;;;;;25.30;15.00;;;;;;;;;;5057641;28;20020;-56
2024/03/22 06:52:51;;;;;;;24.08;15.30;;;;;;;;;;5040015;28;20468;-54
2024/03/22 06:55:18;;;;;;;20.90;13.80;;;;;;;;;;5057472;28;20163;-56
2024/03/22 06:57:45;;;;;;;27.17;14.30;;;;;;;;;;5057011;28;20036;-54
2024/03/22 07:00:13;;;;;;;26.20;14.52;;;;;;;;;;5056971;28;20025;-52
2024/03/22 07:02:38;;;;;;;27.83;13.82;;;;;;;;;;5057385;28;20052;-54
2024/03/22 07:05:04;;;;;;;25.63;14.48;;;;;;;;;;5057207;28;20445;-53
2024/03/22 07:07:29;;;;;;;19.60;13.77;;;;;;;;;;5057286;28;20167;-57
2024/03/22 07:09:54;;;;;;;30.10;15.95;;;;;;;;;;5057340;28;20045;-56
2024/03/22 07:12:19;;;;;;;22.35;15.35;;;;;;;;;;5057348;28;20106;-54
2024/03/22 07:14:44;;;;;;;27.13;15.77;;;;;;;;;;5056892;28;20438;-57
2024/03/22 07:17:10;;;;;;;25.80;14.73;;;;;;;;;;5057266;28;20437;-53
2024/03/22 07:19:35;;;;;;;24.92;16.08;;;;;;;;;;5039713;28;20485;-54
2024/03/22 07:22:00;;;;;;;23.23;16.55;;;;;;;;;;5057331;28;20551;-56
2024/03/22 07:24:25;;;;;;;23.25;17.00;;;;;;;;;;5056847;28;20021;-56
2024/03/22 07:26:51;;;;;;;27.52;17.98;;;;;;;;;;5057003;28;20388;-56
2024/03/22 07:29:16;;;;;;;26.70;17.55;;;;;;;;;;5056908;28;20430;-56
2024/03/22 07:31:41;;;;;;;29.83;18.40;;;;;;;;;;5056673;28;20095;-57
2024/03/22 07:34:07;;;;;;;27.65;18.80;;;;;;;;;;5056904;28;20392;-54
2024/03/22 07:36:37;;;;;;;26.85;18.00;;;;;;;;;;5056693;28;20074;-57
2024/03/22 07:39:03;;;;;;;31.42;19.75;;;;;;;;;;5057095;28;20433;-57
2024/03/22 07:41:28;;;;;;;28.67;18.80;;;;;;;;;;5056730;28;20025;-55
2024/03/22 07:43:53;;;;;;;29.15;18.92;;;;;;;;;;5056743;28;20013;-56
2024/03/22 07:46:19;;;;;;;31.73;20.40;;;;;;;;;;5056426;28;20031;-56
2024/03/22 07:48:44;;;;;;;27.27;18.70;;;;;;;;;;5056680;28;20025;-57
2024/03/22 07:51:10;;;;;;;34.80;21.02;;;;;;;;;;5055298;28;20025;-56
2024/03/22 07:53:35;;;;;;;29.17;20.50;;;;;;;;;;5056258;28;20021;-56
2024/03/22 07:56:01;;;;;;;28.60;20.05;;;;;;;;;;5056468;28;20092;-56
2024/03/22 07:58:26;;;;;;;30.77;20.15;;;;;;;;;;5055832;28;20096;-54
2024/03/22 08:00:51;;;;;;;30.55;20.60;;;;;;;;;;5056311;28;20028;-55
2024/03/22 08:03:16;;;;;;;25.38;18.52;;;;;;;;;;5056277;28;20029;-52
2024/03/22 08:05:43;;;;;;;33.60;20.42;;;;;;;;;;5038497;28;20031;-56
2024/03/22 08:08:09;;;;;;;29.40;21.25;;;;;;;;;;5056107;28;20021;-57
2024/03/22 08:10:35;;;;;;;31.70;19.67;;;;;;;;;;5056156;28;20020;-51
2024/03/22 08:13:00;;;;;;;35.53;20.92;;;;;;;;;;5056084;28;20017;-54
2024/03/22 08:15:27;;;;;;;27.63;20.23;;;;;;;;;;5055755;28;20040;-56
2024/03/22 08:17:52;;;;;;;26.92;19.63;;;;;;;;;;5055962;28;20408;-56
2024/03/22 08:20:17;;;;;;;27.45;19.80;;;;;;;;;;5056077;28;20054;-53
2024/03/22 08:22:43;;;;;;;28.58;20.23;;;;;;;;;;5056253;28;20456;-54
2024/03/22 08:25:08;;;;;;;26.92;20.30;;;;;;;;;;5055603;28;20036;-55
2024/03/22 08:27:34;;;;;;;29.88;20.88;;;;;;;;;;5056110;28;20040;-54
2024/03/22 08:29:59;;;;;;;27.38;19.02;;;;;;;;;;5056106;28;20456;-56
2024/03/22 08:32:24;;;;;;;26.73;18.50;;;;;;;;;;5055786;28;20107;-55
2024/03/22 08:34:49;;;;;;;24.88;18.38;;;;;;;;;;5055538;28;20361;-56
2024/03/22 08:37:15;;;;;;;25.10;17.73;;;;;;;;;;5055747;28;20353;-57
2024/03/22 08:39:40;;;;;;;28.35;18.95;;;;;;;;;;5055934;28;20087;-54
2024/03/22 08:42:06;;;;;;;27.98;18.85;;;;;;;;;;5055886;28;20021;-56
2024/03/22 08:44:31;;;;;;;25.88;18.17;;;;;;;;;;5037755;28;20127;-54
2024/03/22 08:46:56;;;;;;;28.58;19.45;;;;;;;;;;5055574;28;20021;-55
2024/03/22 08:49:23;;;;;;;23.42;17.48;;;;;;;;;;5055472;28;20021;-53
2024/03/22 08:51:48;;;;;;;24.95;17.02;;;;;;;;;;5055231;28;20047;-56
2024/03/22 08:54:14;;;;;;;27.40;17.58;;;;;;;;;;5055366;28;20017;-54
2024/03/22 08:56:39;;;;;;;24.90;18.05;;;;;;;;;;5055200;28;20028;-53
2024/03/22 08:59:05;;;;;;;25.95;16.75;;;;;;;;;;5055226;28;20430;-53
2024/03/22 09:01:30;;;;;;;25.55;16.05;;;;;;;;;;5055234;28;20025;-54
2024/03/22 09:03:56;;;;;;;20.23;13.93;;;;;;;;;;5054606;28;20029;-57
2024/03/22 09:06:21;;;;;;;18.08;14.45;;;;;;;;;;5055522;28;20031;-54
2024/03/22 09:08:46;;;;;;;19.73;14.63;;;;;;;;;;5037590;28;20029;-55
2024/03/22 09:11:12;;;;;;;20.35;14.40;;;;;;;;;;5037509;28;20115;-53
2024/03/22 09:13:37;;;;;;;21.48;14.77;;;;;;;;;;5055040;28;20097;-54
2024/03/22 09:16:03;;;;;;;24.13;14.40;;;;;;;;;;5054843;28;20028;-55
2024/03/22 09:18:29;;;;;;;19.20;13.48;;;;;;;;;;5054783;28;20033;-55
2024/03/22 09:20:56;;;;;;;19.85;14.85;;;;;;;;;;5055112;28;20088;-56
2024/03/22 09:23:21;;;;;;;18.77;13.88;;;;;;;;;;5054905;28;20029;-56
2024/03/22 09:25:47;;;;;;;22.65;14.95;;;;;;;;;;5054741;28;20488;-53
2024/03/22 09:28:12;;;;;;;19.52;14.13;;;;;;;;;;5054720;28;20404;-53
2024/03/22 09:30:38;;;;;;;24.80;14.68;;;;;;;;;;5054869;28;20041;-55
2024/03/22 09:33:03;;;;;;;22.95;14.05;;;;;;;;;;5054742;28;20346;-53
2024/03/22 09:35:28;;;;;;;21.50;14.02;;;;;;;;;;5054774;28;20051;-54
2024/03/22 09:37:54;;;;;;;21.98;12.60;;;;;;;;;;5054947;28;20024;-53
2024/03/22 09:40:19;;;;;;;19.60;13.32;;;;;;;;;;5054781;28;20021;-57
2024/03/22 09:42:46;;;;;;;20.90;13.25;;;;;;;;;;5054714;28;20331;-56
2024/03/22 09:45:12;;;;;;;19.67;12.48;;;;;;;;;;5054594;28;20032;-52
2024/03/22 09:47:39;;;;;;;19.27;12.15;;;;;;;;;;5054630;28;20021;-54
2024/03/22 09:50:06;;;;;;;18.02;11.60;;;;;;;;;;5036948;28;20032;-55
2024/03/22 09:52:33;;;;;;;18.13;12.27;;;;;;;;;;5037121;28;20025;-56
2024/03/22 09:54:58;;;;;;;21.25;12.80;;;;;;;;;;5054515;28;20096;-53
2024/03/22 09:57:24;;;;;;;14.35;10.52;;;;;;;;;;5054878;28;20048;-54
2024/03/22 09:59:49;;;;;;;18.40;11.27;;;;;;;;;;5054518;28;20025;-56
2024/03/22 10:02:14;;;;;;;18.00;10.32;;;;;;;;;;5054729;28;20025;-53
2024/03/22 10:04:43;;;;;;;20.05;11.48;;;;;;;;;;5054380;28;20040;-56
2024/03/22 10:07:09;;;;;;;16.08;11.02;;;;;;;;;;5054253;28;20031;-52
2024/03/22 10:09:36;;;;;;;15.40;10.85;;;;;;;;;;5054626;28;20021;-55
2024/03/22 10:12:04;;;;;;;15.88;11.45;;;;;;;;;;5054656;28;20028;-54
2024/03/22 10:14:31;;;;;;;20.42;12.00;;;;;;;;;;5054795;28;20104;-55
2024/03/22 10:16:58;;;;;;;18.35;10.77;;;;;;;;;;5058206;28;20087;-53
2024/03/22 10:19:24;;;;;;;17.02;11.18;;;;;;;;;;5058595;28;20029;-54
2024/03/22 10:22:03;;;;;;;14.60;10.30;;;;;;;;;;5058244;28;20120;-56
2024/03/22 10:24:30;;;;;;;16.58;11.25;;;;;;;;;;5058239;28;20024;-55
2024/03/22 10:26:55;;;;;;;15.65;10.95;;;;;;;;;;5057966;28;20056;-53
2024/03/22 10:29:22;;;;;;;19.20;11.77;;;;;;;;;;5058105;28;20390;-53
2024/03/22 10:31:47;;;;;;;16.90;11.70;;;;;;;;;;5058103;28;20450;-51
2024/03/22 10:34:13;;;;;;;16.83;12.00;;;;;;;;;;5058054;28;20024;-53
2024/03/22 10:36:38;;;;;;;16.52;11.23;;;;;;;;;;5057995;28;20104;-54
2024/03/22 10:39:04;;;;;;;15.48;11.45;;;;;;;;;;5058218;28;20505;-52
2024/03/22 10:41:29;;;;;;;22.55;12.93;;;;;;;;;;5058532;28;20021;-52
2024/03/22 10:43:54;;;;;;;21.67;13.38;;;;;;;;;;5057815;28;20346;-52
2024/03/22 10:46:20;;;;;;;16.30;12.75;;;;;;;;;;5057531;28;20445;-55
2024/03/22 10:48:45;;;;;;;18.75;13.02;;;;;;;;;;5057749;28;20021;-53
2024/03/22 10:51:11;;;;;;;19.42;12.45;;;;;;;;;;5057725;28;20009;-55
2024/03/22 10:53:37;;;;;;;18.15;12.77;;;;;;;;;;5057489;28;20017;-52
2024/03/22 10:56:03;;;;;;;20.45;12.05;;;;;;;;;;5057730;28;20362;-52
2024/03/22 10:58:29;;;;;;;20.27;13.20;;;;;;;;;;5057575;28;20017;-55
2024/03/22 11:00:55;;;;;;;17.55;12.25;;;;;;;;;;5057115;28;20032;-56
2024/03/22 11:03:23;;;;;;;22.55;13.00;;;;;;;;;;5056899;28;20021;-54
2024/03/22 11:05:50;;;;;;;21.60;12.68;;;;;;;;;;5057290;28;20025;-53
2024/03/22 11:08:23;;;;;;;17.58;11.93;;;;;;;;;;5039795;28;20108;-52
2024/03/22 11:10:48;;;;;;;19.10;12.63;;;;;;;;;;5057497;28;20017;-54
2024/03/22 11:13:16;;;;;;;15.55;11.95;;;;;;;;;;5057101;28;20498;-53
2024/03/22 11:15:41;;;;;;;22.83;13.45;;;;;;;;;;5057057;28;20400;-56
2024/03/22 11:18:06;;;;;;;16.38;11.95;;;;;;;;;;5057246;28;20021;-55
2024/03/22 11:20:35;;;;;;;16.13;11.75;;;;;;;;;;5057034;28;20021;-56
2024/03/22 11:23:01;;;;;;;18.75;13.15;;;;;;;;;;5057142;28;20481;-54
2024/03/22 11:25:26;;;;;;;16.77;12.18;;;;;;;;;;5056819;28;20111;-53
2024/03/22 11:27:52;;;;;;;18.60;12.90;;;;;;;;;;5056982;28;20448;-56
2024/03/22 11:30:17;;;;;;;18.15;12.57;;;;;;;;;;5056881;28;20017;-54
2024/03/22 11:32:44;;;;;;;20.02;12.32;;;;;;;;;;5056931;28;20020;-53
2024/03/22 11:35:09;;;;;;;17.27;12.18;;;;;;;;;;5043959;28;20044;-54
2024/03/22 11:37:35;;;;;;;22.38;13.15;;;;;;;;;;5025659;28;20104;-52
2024/03/22 11:40:02;;;;;;;17.85;12.25;;;;;;;;;;5056156;28;20017;-53
2024/03/22 11:42:28;;;;;;;18.33;12.95;;;;;;;;;;5047610;28;20470;-57
2024/03/22 11:44:53;;;;;;;16.52;12.30;;;;;;;;;;5056061;28;20022;-53
2024/03/22 11:47:18;;;;;;;21.85;14.25;;;;;;;;;;5047026;28;20009;-53
2024/03/22 11:49:44;;;;;;;18.73;14.48;;;;;;;;;;5036571;28;20053;-56
2024/03/22 11:52:09;;;;;;;20.15;14.20;;;;;;;;;;5036694;28;20025;-54
2024/03/22 11:54:34;;;;;;;21.73;14.90;;;;;;;;;;5036657;28;20414;-55
2024/03/22 11:56:59;;;;;;;21.63;16.15;;;;;;;;;;5036565;28;20021;-53
2024/03/22 11:59:24;;;;;;;21.27;14.70;;;;;;;;;;5045367;28;20021;-53
2024/03/22 12:01:51;;;;;;;20.65;14.73;;;;;;;;;;5055555;28;20017;-54
2024/03/22 12:04:17;;;;;;;19.52;14.15;;;;;;;;;;5051064;28;20021;-53
2024/03/22 12:06:46;;;;;;;19.65;14.35;;;;;;;;;;5056245;28;20030;-55
2024/03/22 12:09:13;;;;;;;24.20;15.02;;;;;;;;;;5056174;28;20035;-53
2024/03/22 12:11:40;;;;;;;20.02;14.13;;;;;;;;;;5051515;28;20013;-56
2024/03/22 12:14:06;;;;;;;19.90;14.43;;;;;;;;;;5036144;28;20021;-55
2024/03/22 12:16:33;;;;;;;22.35;15.85;;;;;;;;;;5036184;28;20060;-56
2024/03/22 12:18:59;;;;;;;23.02;15.13;;;;;;;;;;5036063;28;20456;-55
2024/03/22 12:21:26;;;;;;;21.40;15.82;;;;;;;;;;5036179;28;20044;-52
2024/03/22 12:23:51;;;;;;;23.02;16.20;;;;;;;;;;5019258;28;20036;-53
2024/03/22 12:26:17;;;;;;;19.92;14.75;;;;;;;;;;5035972;28;20026;-53
2024/03/22 12:28:42;;;;;;;23.50;14.95;;;;;;;;;;5035867;28;20032;-55
2024/03/22 12:31:08;;;;;;;24.48;15.52;;;;;;;;;;5018503;28;20023;-53
2024/03/22 12:33:33;;;;;;;22.00;15.75;;;;;;;;;;5035866;28;20017;-52
2024/03/22 12:35:58;;;;;;;18.30;14.98;;;;;;;;;;5045068;28;20079;-55
2024/03/22 12:38:23;;;;;;;20.30;15.23;;;;;;;;;;5055470;28;20083;-56
2024/03/22 12:40:49;;;;;;;19.40;13.18;;;;;;;;;;5038087;28;20454;-56
2024/03/22 12:43:15;;;;;;;19.38;13.93;;;;;;;;;;5055533;28;20021;-54
2024/03/22 12:45:40;;;;;;;19.42;12.95;;;;;;;;;;5055531;28;20434;-53
2024/03/22 12:48:05;;;;;;;17.05;12.75;;;;;;;;;;5055433;28;20078;-52
2024/03/22 12:50:31;;;;;;;18.40;12.25;;;;;;;;;;5055485;28;20100;-56
2024/03/22 12:52:57;;;;;;;16.42;11.48;;;;;;;;;;5055460;28;20100;-56
2024/03/22 12:55:22;;;;;;;15.45;10.60;;;;;;;;;;5055660;28;20113;-55
2024/03/22 12:57:47;;;;;;;20.42;11.35;;;;;;;;;;5055360;28;20055;-52
2024/03/22 13:00:13;;;;;;;16.40;10.30;;;;;;;;;;5054926;28;20013;-54
2024/03/22 13:02:41;;;;;;;16.73;10.57;;;;;;;;;;5054405;28;20040;-53
2024/03/22 13:05:07;;;;;;;14.93;10.23;;;;;;;;;;5055266;28;20032;-54
2024/03/22 13:07:32;;;;;;;17.80;10.02;;;;;;;;;;5055511;28;20017;-55
2024/03/22 13:09:57;;;;;;;13.85;9.68;;;;;;;;;;5055344;28;20031;-54
2024/03/22 13:12:22;;;;;;;15.70;10.00;;;;;;;;;;5055117;28;20023;-56
2024/03/22 13:14:47;;;;;;;15.50;9.55;;;;;;;;;;5055060;28;20021;-54
2024/03/22 13:17:13;;;;;;;16.23;10.13;;;;;;;;;;5055288;28;20020;-56
2024/03/22 13:19:38;;;;;;;17.52;9.73;;;;;;;;;;5055034;28;20460;-56
2024/03/22 13:22:04;;;;;;;16.33;11.38;;;;;;;;;;5055206;28;20021;-53
2024/03/22 13:24:29;;;;;;;13.50;10.50;;;;;;;;;;5054911;28;20066;-53
2024/03/22 13:26:54;;;;;;;13.30;9.98;;;;;;;;;;5055219;28;20021;-54
2024/03/22 13:29:19;;;;;;;14.90;10.50;;;;;;;;;;5054816;28;20346;-53
2024/03/22 13:31:45;;;;;;;19.98;13.23;;;;;;;;;;5054809;28;20434;-55
2024/03/22 13:34:10;;;;;;;16.23;11.85;;;;;;;;;;5055097;28;20009;-56
2024/03/22 13:36:37;;;;;;;15.02;10.93;;;;;;;;;;5054712;28;20017;-56
2024/03/22 13:39:03;;;;;;;14.02;10.65;;;;;;;;;;5054779;28;20036;-55
2024/03/22 13:41:28;;;;;;;15.38;11.25;;;;;;;;;;5054682;28;20016;-56
2024/03/22 13:43:53;;;;;;;16.15;11.30;;;;;;;;;;5054640;28;20031;-52
2024/03/22 13:46:18;;;;;;;17.98;11.57;;;;;;;;;;5054713;28;20025;-53
2024/03/22 13:48:44;;;;;;;16.27;11.10;;;;;;;;;;5054612;28;20029;-56
2024/03/22 13:51:10;;;;;;;15.35;10.88;;;;;;;;;;5058317;28;20021;-53
2024/03/22 13:53:36;;;;;;;19.67;10.88;;;;;;;;;;5058784;28;20099;-53
2024/03/22 13:56:01;;;;;;;18.25;11.95;;;;;;;;;;5058962;28;20028;-54
2024/03/22 13:58:27;;;;;;;17.08;11.68;;;;;;;;;;5058772;28;20438;-53
2024/03/22 14:00:52;;;;;;;17.75;11.77;;;;;;;;;;5058244;28;20369;-55
2024/03/22 14:03:17;;;;;;;16.83;11.77;;;;;;;;;;5040326;28;20136;-53
2024/03/22 14:05:42;;;;;;;17.45;12.05;;;;;;;;;;5058522;28;20021;-55
2024/03/22 14:08:07;;;;;;;16.63;11.68;;;;;;;;;;5058501;28;20032;-53